sensor_id;sensor_type;location;lat;lon;timestamp;P1;durP1;ratioP1;P2;durP2;ratioP2
67378;SDS011;54262;44.642;-0.974;2023-03-01T00:01:25;52.28;;;28.05;;
67378;SDS011;54262;44.642;-0.974;2023-03-01T00:03:52;52.67;;;29.52;;
67378;SDS011;54262;44.642;-0.974;2023-03-01T00:06:18;54.33;;;29.13;;
67378;SDS011;54262;44.642;-0.974;2023-03-01T00:08:44;62.65;;;34.00;;
67378;SDS011;54262;44.642;-0.974;2023-03-01T00:13:36;62.17;;;33.83;;
67378;SDS011;54262;44.642;-0.974;2023-03-01T00:16:07;73.68;;;37.85;;
67378;SDS011;54262;44.642;-0.974;2023-03-01T00:18:33;79.10;;;41.75;;
67378;SDS011;54262;44.642;-0.974;2023-03-01T00:20:59;70.07;;;37.15;;
67378;SDS011;54262;44.642;-0.974;2023-03-01T00:23:25;34.25;;;23.25;;
67378;SDS011;54262;44.642;-0.974;2023-03-01T00:25:52;22.20;;;18.27;;
67378;SDS011;54262;44.642;-0.974;2023-03-01T00:28:18;61.75;;;31.08;;
67378;SDS011;54262;44.642;-0.974;2023-03-01T00:30:44;39.08;;;25.08;;
67378;SDS011;54262;44.642;-0.974;2023-03-01T00:33:10;23.23;;;18.17;;
67378;SDS011;54262;44.642;-0.974;2023-03-01T00:35:36;25.50;;;18.90;;
67378;SDS011;54262;44.642;-0.974;2023-03-01T00:38:02;16.77;;;15.10;;
67378;SDS011;54262;44.642;-0.974;2023-03-01T00:40:29;20.98;;;16.50;;
67378;SDS011;54262;44.642;-0.974;2023-03-01T00:42:56;16.92;;;14.93;;
67378;SDS011;54262;44.642;-0.974;2023-03-01T00:45:22;12.88;;;11.93;;
67378;SDS011;54262;44.642;-0.974;2023-03-01T00:47:48;17.58;;;13.25;;
67378;SDS011;54262;44.642;-0.974;2023-03-01T00:50:14;13.63;;;12.13;;
67378;SDS011;54262;44.642;-0.974;2023-03-01T00:52:40;17.25;;;13.68;;
67378;SDS011;54262;44.642;-0.974;2023-03-01T00:55:07;16.45;;;14.80;;
67378;SDS011;54262;44.642;-0.974;2023-03-01T00:57:33;32.38;;;20.63;;
67378;SDS011;54262;44.642;-0.974;2023-03-01T00:59:59;22.05;;;17.23;;
67378;SDS011;54262;44.642;-0.974;2023-03-01T01:02:25;11.88;;;10.82;;
67378;SDS011;54262;44.642;-0.974;2023-03-01T01:04:51;16.10;;;13.07;;
67378;SDS011;54262;44.642;-0.974;2023-03-01T01:07:17;23.38;;;16.33;;
67378;SDS011;54262;44.642;-0.974;2023-03-01T01:09:45;15.40;;;12.43;;
67378;SDS011;54262;44.642;-0.974;2023-03-01T01:12:11;20.52;;;15.02;;
67378;SDS011;54262;44.642;-0.974;2023-03-01T01:14:37;15.48;;;13.80;;
67378;SDS011;54262;44.642;-0.974;2023-03-01T01:17:04;14.52;;;12.70;;
67378;SDS011;54262;44.642;-0.974;2023-03-01T01:19:30;11.40;;;10.60;;
67378;SDS011;54262;44.642;-0.974;2023-03-01T01:21:56;11.43;;;10.40;;
67378;SDS011;54262;44.642;-0.974;2023-03-01T01:24:22;11.95;;;9.82;;
67378;SDS011;54262;44.642;-0.974;2023-03-01T01:26:48;9.98;;;9.05;;
67378;SDS011;54262;44.642;-0.974;2023-03-01T01:29:14;9.30;;;8.38;;
67378;SDS011;54262;44.642;-0.974;2023-03-01T01:31:41;9.20;;;8.52;;
67378;SDS011;54262;44.642;-0.974;2023-03-01T01:34:09;8.48;;;7.88;;
67378;SDS011;54262;44.642;-0.974;2023-03-01T01:36:38;7.45;;;7.03;;
67378;SDS011;54262;44.642;-0.974;2023-03-01T01:39:04;6.97;;;6.57;;
67378;SDS011;54262;44.642;-0.974;2023-03-01T01:41:30;7.65;;;7.18;;
67378;SDS011;54262;44.642;-0.974;2023-03-01T01:46:35;7.50;;;7.07;;
67378;SDS011;54262;44.642;-0.974;2023-03-01T01:49:03;7.47;;;6.95;;
67378;SDS011;54262;44.642;-0.974;2023-03-01T01:51:33;6.97;;;6.68;;
67378;SDS011;54262;44.642;-0.974;2023-03-01T01:54:03;7.55;;;6.95;;
67378;SDS011;54262;44.642;-0.974;2023-03-01T01:56:32;7.50;;;7.10;;
67378;SDS011;54262;44.642;-0.974;2023-03-01T01:58:58;7.45;;;6.95;;
67378;SDS011;54262;44.642;-0.974;2023-03-01T02:01:24;6.45;;;6.15;;
67378;SDS011;54262;44.642;-0.974;2023-03-01T02:03:50;6.88;;;6.47;;
67378;SDS011;54262;44.642;-0.974;2023-03-01T02:06:27;6.82;;;6.50;;
67378;SDS011;54262;44.642;-0.974;2023-03-01T02:08:59;7.18;;;6.72;;
67378;SDS011;54262;44.642;-0.974;2023-03-01T02:11:25;6.47;;;6.13;;
67378;SDS011;54262;44.642;-0.974;2023-03-01T02:13:53;7.20;;;6.38;;
67378;SDS011;54262;44.642;-0.974;2023-03-01T02:16:19;6.65;;;6.25;;
67378;SDS011;54262;44.642;-0.974;2023-03-01T02:18:46;7.53;;;7.13;;
67378;SDS011;54262;44.642;-0.974;2023-03-01T02:23:41;6.85;;;6.50;;
67378;SDS011;54262;44.642;-0.974;2023-03-01T02:26:13;7.20;;;6.80;;
67378;SDS011;54262;44.642;-0.974;2023-03-01T02:28:42;6.80;;;6.43;;
67378;SDS011;54262;44.642;-0.974;2023-03-01T02:31:09;5.90;;;5.55;;
67378;SDS011;54262;44.642;-0.974;2023-03-01T02:33:54;6.13;;;5.82;;
67378;SDS011;54262;44.642;-0.974;2023-03-01T02:36:21;6.07;;;5.78;;
67378;SDS011;54262;44.642;-0.974;2023-03-01T02:38:48;5.95;;;5.55;;
67378;SDS011;54262;44.642;-0.974;2023-03-01T02:41:19;5.70;;;4.95;;
67378;SDS011;54262;44.642;-0.974;2023-03-01T02:43:45;5.40;;;5.07;;
67378;SDS011;54262;44.642;-0.974;2023-03-01T02:48:42;5.80;;;5.53;;
67378;SDS011;54262;44.642;-0.974;2023-03-01T02:51:17;5.30;;;5.05;;
67378;SDS011;54262;44.642;-0.974;2023-03-01T02:56:16;5.78;;;5.47;;
67378;SDS011;54262;44.642;-0.974;2023-03-01T02:58:43;7.53;;;7.13;;
67378;SDS011;54262;44.642;-0.974;2023-03-01T03:01:13;7.07;;;6.68;;
67378;SDS011;54262;44.642;-0.974;2023-03-01T03:03:40;7.35;;;6.85;;
67378;SDS011;54262;44.642;-0.974;2023-03-01T03:06:06;8.60;;;7.95;;
67378;SDS011;54262;44.642;-0.974;2023-03-01T03:08:32;8.55;;;7.55;;
67378;SDS011;54262;44.642;-0.974;2023-03-01T03:10:58;8.07;;;7.63;;
67378;SDS011;54262;44.642;-0.974;2023-03-01T03:13:24;7.28;;;6.78;;
67378;SDS011;54262;44.642;-0.974;2023-03-01T03:15:54;6.63;;;6.07;;
67378;SDS011;54262;44.642;-0.974;2023-03-01T03:18:21;7.38;;;6.97;;
67378;SDS011;54262;44.642;-0.974;2023-03-01T03:20:47;7.20;;;6.88;;
67378;SDS011;54262;44.642;-0.974;2023-03-01T03:23:17;7.38;;;6.93;;
67378;SDS011;54262;44.642;-0.974;2023-03-01T03:25:43;8.07;;;7.68;;
67378;SDS011;54262;44.642;-0.974;2023-03-01T03:28:11;9.32;;;8.38;;
67378;SDS011;54262;44.642;-0.974;2023-03-01T03:30:38;9.15;;;8.55;;
67378;SDS011;54262;44.642;-0.974;2023-03-01T03:33:05;8.82;;;8.32;;
67378;SDS011;54262;44.642;-0.974;2023-03-01T03:35:32;7.97;;;7.57;;
67378;SDS011;54262;44.642;-0.974;2023-03-01T03:37:59;8.75;;;8.05;;
67378;SDS011;54262;44.642;-0.974;2023-03-01T03:42:56;9.88;;;9.02;;
67378;SDS011;54262;44.642;-0.974;2023-03-01T03:45:22;9.90;;;9.20;;
67378;SDS011;54262;44.642;-0.974;2023-03-01T03:47:51;8.45;;;7.93;;
67378;SDS011;54262;44.642;-0.974;2023-03-01T03:50:17;7.97;;;7.38;;
67378;SDS011;54262;44.642;-0.974;2023-03-01T03:52:43;8.07;;;7.43;;
67378;SDS011;54262;44.642;-0.974;2023-03-01T03:55:10;6.63;;;6.32;;
67378;SDS011;54262;44.642;-0.974;2023-03-01T03:57:37;7.60;;;6.85;;
67378;SDS011;54262;44.642;-0.974;2023-03-01T04:00:04;7.80;;;7.30;;
67378;SDS011;54262;44.642;-0.974;2023-03-01T04:02:30;7.03;;;6.70;;
67378;SDS011;54262;44.642;-0.974;2023-03-01T04:04:57;6.03;;;5.53;;
67378;SDS011;54262;44.642;-0.974;2023-03-01T04:07:23;6.35;;;6.05;;
67378;SDS011;54262;44.642;-0.974;2023-03-01T04:09:49;5.53;;;5.22;;
67378;SDS011;54262;44.642;-0.974;2023-03-01T04:12:15;6.07;;;5.70;;
67378;SDS011;54262;44.642;-0.974;2023-03-01T04:14:45;6.45;;;5.88;;
67378;SDS011;54262;44.642;-0.974;2023-03-01T04:17:11;6.18;;;5.78;;
67378;SDS011;54262;44.642;-0.974;2023-03-01T04:19:37;5.88;;;5.57;;
67378;SDS011;54262;44.642;-0.974;2023-03-01T04:22:03;6.13;;;5.60;;
67378;SDS011;54262;44.642;-0.974;2023-03-01T04:24:34;6.15;;;5.75;;
67378;SDS011;54262;44.642;-0.974;2023-03-01T04:27:01;19.52;;;13.68;;
67378;SDS011;54262;44.642;-0.974;2023-03-01T04:29:27;6.43;;;6.07;;
67378;SDS011;54262;44.642;-0.974;2023-03-01T04:31:53;5.88;;;5.47;;
67378;SDS011;54262;44.642;-0.974;2023-03-01T04:34:19;6.20;;;5.90;;
67378;SDS011;54262;44.642;-0.974;2023-03-01T04:36:45;6.75;;;6.32;;
67378;SDS011;54262;44.642;-0.974;2023-03-01T04:39:11;7.00;;;6.60;;
67378;SDS011;54262;44.642;-0.974;2023-03-01T04:41:37;7.15;;;6.85;;
67378;SDS011;54262;44.642;-0.974;2023-03-01T04:44:08;7.10;;;6.70;;
67378;SDS011;54262;44.642;-0.974;2023-03-01T04:46:34;6.95;;;6.55;;
67378;SDS011;54262;44.642;-0.974;2023-03-01T04:49:01;7.07;;;6.68;;
67378;SDS011;54262;44.642;-0.974;2023-03-01T04:51:27;6.75;;;6.45;;
67378;SDS011;54262;44.642;-0.974;2023-03-01T04:53:53;6.82;;;6.53;;
67378;SDS011;54262;44.642;-0.974;2023-03-01T04:56:19;6.80;;;6.47;;
67378;SDS011;54262;44.642;-0.974;2023-03-01T04:58:47;6.97;;;6.15;;
67378;SDS011;54262;44.642;-0.974;2023-03-01T05:01:17;7.13;;;6.78;;
67378;SDS011;54262;44.642;-0.974;2023-03-01T05:03:45;7.38;;;6.28;;
67378;SDS011;54262;44.642;-0.974;2023-03-01T05:06:12;7.35;;;6.80;;
67378;SDS011;54262;44.642;-0.974;2023-03-01T05:08:39;6.80;;;6.40;;
67378;SDS011;54262;44.642;-0.974;2023-03-01T05:11:05;7.18;;;6.60;;
67378;SDS011;54262;44.642;-0.974;2023-03-01T05:13:34;7.15;;;6.80;;
67378;SDS011;54262;44.642;-0.974;2023-03-01T05:16:00;8.90;;;8.40;;
67378;SDS011;54262;44.642;-0.974;2023-03-01T05:18:27;7.07;;;6.35;;
67378;SDS011;54262;44.642;-0.974;2023-03-01T05:20:54;7.80;;;7.15;;
67378;SDS011;54262;44.642;-0.974;2023-03-01T05:23:21;7.03;;;6.63;;
67378;SDS011;54262;44.642;-0.974;2023-03-01T05:25:47;7.75;;;7.25;;
67378;SDS011;54262;44.642;-0.974;2023-03-01T05:28:20;7.72;;;7.32;;
67378;SDS011;54262;44.642;-0.974;2023-03-01T05:30:46;10.70;;;10.18;;
67378;SDS011;54262;44.642;-0.974;2023-03-01T05:33:12;11.07;;;10.45;;
67378;SDS011;54262;44.642;-0.974;2023-03-01T05:35:39;11.15;;;10.50;;
67378;SDS011;54262;44.642;-0.974;2023-03-01T05:38:07;10.85;;;10.15;;
67378;SDS011;54262;44.642;-0.974;2023-03-01T05:40:33;9.70;;;8.98;;
67378;SDS011;54262;44.642;-0.974;2023-03-01T05:42:59;9.85;;;9.32;;
67378;SDS011;54262;44.642;-0.974;2023-03-01T05:45:28;9.57;;;9.07;;
67378;SDS011;54262;44.642;-0.974;2023-03-01T05:47:54;12.45;;;11.35;;
67378;SDS011;54262;44.642;-0.974;2023-03-01T05:50:21;10.30;;;9.60;;
67378;SDS011;54262;44.642;-0.974;2023-03-01T05:52:48;10.88;;;10.18;;
67378;SDS011;54262;44.642;-0.974;2023-03-01T05:55:19;11.38;;;10.30;;
67378;SDS011;54262;44.642;-0.974;2023-03-01T05:57:48;10.43;;;9.55;;
67378;SDS011;54262;44.642;-0.974;2023-03-01T06:00:16;10.23;;;9.50;;
67378;SDS011;54262;44.642;-0.974;2023-03-01T06:10:22;11.85;;;11.07;;
67378;SDS011;54262;44.642;-0.974;2023-03-01T06:12:48;11.68;;;10.80;;
67378;SDS011;54262;44.642;-0.974;2023-03-01T06:15:15;11.27;;;10.52;;
67378;SDS011;54262;44.642;-0.974;2023-03-01T06:17:42;13.45;;;12.20;;
67378;SDS011;54262;44.642;-0.974;2023-03-01T06:20:10;11.35;;;10.55;;
67378;SDS011;54262;44.642;-0.974;2023-03-01T06:22:36;12.35;;;10.35;;
67378;SDS011;54262;44.642;-0.974;2023-03-01T06:25:02;10.43;;;9.65;;
67378;SDS011;54262;44.642;-0.974;2023-03-01T06:27:29;13.32;;;11.77;;
67378;SDS011;54262;44.642;-0.974;2023-03-01T06:29:55;9.80;;;9.30;;
67378;SDS011;54262;44.642;-0.974;2023-03-01T06:32:21;11.15;;;10.55;;
67378;SDS011;54262;44.642;-0.974;2023-03-01T06:34:47;11.70;;;10.95;;
67378;SDS011;54262;44.642;-0.974;2023-03-01T06:37:13;11.93;;;11.05;;
67378;SDS011;54262;44.642;-0.974;2023-03-01T06:44:47;13.23;;;12.52;;
67378;SDS011;54262;44.642;-0.974;2023-03-01T06:47:13;11.35;;;10.43;;
67378;SDS011;54262;44.642;-0.974;2023-03-01T06:49:39;13.38;;;12.25;;
67378;SDS011;54262;44.642;-0.974;2023-03-01T06:52:06;13.63;;;12.25;;
67378;SDS011;54262;44.642;-0.974;2023-03-01T06:54:32;16.00;;;14.77;;
67378;SDS011;54262;44.642;-0.974;2023-03-01T06:56:58;19.92;;;17.63;;
67378;SDS011;54262;44.642;-0.974;2023-03-01T06:59:24;19.85;;;17.25;;
67378;SDS011;54262;44.642;-0.974;2023-03-01T07:01:50;14.90;;;13.50;;
67378;SDS011;54262;44.642;-0.974;2023-03-01T07:04:16;12.85;;;12.05;;
67378;SDS011;54262;44.642;-0.974;2023-03-01T07:06:42;13.65;;;12.60;;
67378;SDS011;54262;44.642;-0.974;2023-03-01T07:09:08;14.23;;;13.15;;
67378;SDS011;54262;44.642;-0.974;2023-03-01T07:11:34;13.55;;;12.45;;
67378;SDS011;54262;44.642;-0.974;2023-03-01T07:14:00;14.55;;;13.50;;
67378;SDS011;54262;44.642;-0.974;2023-03-01T07:16:29;16.70;;;12.95;;
67378;SDS011;54262;44.642;-0.974;2023-03-01T07:18:58;14.80;;;13.55;;
67378;SDS011;54262;44.642;-0.974;2023-03-01T07:21:24;13.25;;;12.55;;
67378;SDS011;54262;44.642;-0.974;2023-03-01T07:23:50;14.48;;;13.27;;
67378;SDS011;54262;44.642;-0.974;2023-03-01T07:26:16;13.05;;;12.20;;
67378;SDS011;54262;44.642;-0.974;2023-03-01T07:28:42;12.45;;;11.38;;
67378;SDS011;54262;44.642;-0.974;2023-03-01T07:31:08;14.05;;;12.27;;
67378;SDS011;54262;44.642;-0.974;2023-03-01T07:33:34;12.45;;;11.55;;
67378;SDS011;54262;44.642;-0.974;2023-03-01T07:36:01;14.68;;;13.55;;
67378;SDS011;54262;44.642;-0.974;2023-03-01T07:38:28;12.73;;;11.48;;
67378;SDS011;54262;44.642;-0.974;2023-03-01T07:40:57;11.15;;;10.65;;
67378;SDS011;54262;44.642;-0.974;2023-03-01T07:43:24;14.82;;;13.73;;
67378;SDS011;54262;44.642;-0.974;2023-03-01T07:45:50;17.77;;;16.13;;
67378;SDS011;54262;44.642;-0.974;2023-03-01T07:48:16;11.32;;;10.73;;
67378;SDS011;54262;44.642;-0.974;2023-03-01T07:50:42;11.35;;;10.73;;
67378;SDS011;54262;44.642;-0.974;2023-03-01T07:53:09;11.05;;;10.25;;
67378;SDS011;54262;44.642;-0.974;2023-03-01T07:55:35;11.32;;;10.77;;
67378;SDS011;54262;44.642;-0.974;2023-03-01T07:58:01;13.43;;;12.15;;
67378;SDS011;54262;44.642;-0.974;2023-03-01T08:00:27;11.38;;;10.77;;
67378;SDS011;54262;44.642;-0.974;2023-03-01T08:02:53;11.13;;;9.95;;
67378;SDS011;54262;44.642;-0.974;2023-03-01T08:05:19;11.40;;;10.52;;
67378;SDS011;54262;44.642;-0.974;2023-03-01T08:07:47;11.45;;;10.60;;
67378;SDS011;54262;44.642;-0.974;2023-03-01T08:10:13;12.43;;;11.63;;
67378;SDS011;54262;44.642;-0.974;2023-03-01T08:12:39;10.40;;;9.80;;
67378;SDS011;54262;44.642;-0.974;2023-03-01T08:15:05;11.40;;;10.70;;
67378;SDS011;54262;44.642;-0.974;2023-03-01T08:17:31;10.80;;;10.30;;
67378;SDS011;54262;44.642;-0.974;2023-03-01T08:20:00;11.10;;;10.27;;
67378;SDS011;54262;44.642;-0.974;2023-03-01T08:22:27;11.40;;;10.57;;
67378;SDS011;54262;44.642;-0.974;2023-03-01T08:24:53;10.63;;;10.02;;
67378;SDS011;54262;44.642;-0.974;2023-03-01T08:27:20;10.98;;;10.32;;
67378;SDS011;54262;44.642;-0.974;2023-03-01T08:29:46;11.10;;;10.40;;
67378;SDS011;54262;44.642;-0.974;2023-03-01T08:32:13;11.90;;;10.93;;
67378;SDS011;54262;44.642;-0.974;2023-03-01T08:34:39;11.23;;;10.43;;
67378;SDS011;54262;44.642;-0.974;2023-03-01T08:37:05;11.43;;;10.75;;
67378;SDS011;54262;44.642;-0.974;2023-03-01T08:39:31;11.32;;;10.82;;
67378;SDS011;54262;44.642;-0.974;2023-03-01T08:41:57;12.73;;;11.88;;
67378;SDS011;54262;44.642;-0.974;2023-03-01T08:44:23;13.30;;;12.18;;
67378;SDS011;54262;44.642;-0.974;2023-03-01T08:46:52;12.20;;;11.32;;
67378;SDS011;54262;44.642;-0.974;2023-03-01T08:49:20;14.27;;;13.15;;
67378;SDS011;54262;44.642;-0.974;2023-03-01T08:51:47;10.38;;;9.88;;
67378;SDS011;54262;44.642;-0.974;2023-03-01T08:54:14;13.00;;;11.95;;
67378;SDS011;54262;44.642;-0.974;2023-03-01T08:56:41;10.55;;;10.10;;
67378;SDS011;54262;44.642;-0.974;2023-03-01T08:59:08;10.02;;;9.52;;
67378;SDS011;54262;44.642;-0.974;2023-03-01T09:01:35;11.32;;;10.60;;
67378;SDS011;54262;44.642;-0.974;2023-03-01T09:04:02;10.70;;;10.07;;
67378;SDS011;54262;44.642;-0.974;2023-03-01T09:06:30;10.38;;;9.68;;
67378;SDS011;54262;44.642;-0.974;2023-03-01T09:08:57;10.77;;;9.65;;
67378;SDS011;54262;44.642;-0.974;2023-03-01T09:11:23;8.70;;;8.20;;
67378;SDS011;54262;44.642;-0.974;2023-03-01T09:13:49;10.55;;;9.95;;
67378;SDS011;54262;44.642;-0.974;2023-03-01T09:16:16;9.75;;;9.23;;
67378;SDS011;54262;44.642;-0.974;2023-03-01T09:18:42;9.05;;;8.57;;
67378;SDS011;54262;44.642;-0.974;2023-03-01T09:21:10;10.07;;;9.38;;
67378;SDS011;54262;44.642;-0.974;2023-03-01T09:23:40;9.20;;;8.73;;
67378;SDS011;54262;44.642;-0.974;2023-03-01T09:26:07;8.77;;;8.00;;
67378;SDS011;54262;44.642;-0.974;2023-03-01T09:28:34;10.38;;;8.85;;
67378;SDS011;54262;44.642;-0.974;2023-03-01T09:31:00;8.55;;;8.10;;
67378;SDS011;54262;44.642;-0.974;2023-03-01T09:33:29;8.68;;;8.23;;
67378;SDS011;54262;44.642;-0.974;2023-03-01T09:35:56;9.70;;;9.20;;
67378;SDS011;54262;44.642;-0.974;2023-03-01T09:38:22;8.65;;;8.25;;
67378;SDS011;54262;44.642;-0.974;2023-03-01T09:40:48;8.90;;;8.50;;
67378;SDS011;54262;44.642;-0.974;2023-03-01T09:45:50;8.48;;;8.05;;
67378;SDS011;54262;44.642;-0.974;2023-03-01T09:48:21;9.68;;;9.27;;
67378;SDS011;54262;44.642;-0.974;2023-03-01T09:50:48;8.77;;;7.75;;
67378;SDS011;54262;44.642;-0.974;2023-03-01T09:53:19;8.05;;;7.60;;
67378;SDS011;54262;44.642;-0.974;2023-03-01T09:55:48;7.45;;;7.15;;
67378;SDS011;54262;44.642;-0.974;2023-03-01T10:06:35;7.90;;;7.40;;
67378;SDS011;54262;44.642;-0.974;2023-03-01T10:11:31;7.38;;;6.97;;
67378;SDS011;54262;44.642;-0.974;2023-03-01T10:17:12;6.65;;;6.30;;
67378;SDS011;54262;44.642;-0.974;2023-03-01T10:19:58;7.45;;;7.07;;
67378;SDS011;54262;44.642;-0.974;2023-03-01T10:22:04;6.82;;;6.53;;
67378;SDS011;54262;44.642;-0.974;2023-03-01T10:24:34;7.20;;;6.90;;
67378;SDS011;54262;44.642;-0.974;2023-03-01T10:27:03;7.32;;;6.93;;
67378;SDS011;54262;44.642;-0.974;2023-03-01T10:29:34;7.15;;;6.80;;
67378;SDS011;54262;44.642;-0.974;2023-03-01T10:32:03;53.28;;;29.33;;
67378;SDS011;54262;44.642;-0.974;2023-03-01T10:34:32;6.65;;;6.25;;
67378;SDS011;54262;44.642;-0.974;2023-03-01T10:37:12;8.10;;;7.40;;
67378;SDS011;54262;44.642;-0.974;2023-03-01T10:40:11;7.18;;;6.88;;
67378;SDS011;54262;44.642;-0.974;2023-03-01T10:42:54;6.68;;;6.38;;
67378;SDS011;54262;44.642;-0.974;2023-03-01T10:50:40;4.13;;;2.63;;
67378;SDS011;54262;44.642;-0.974;2023-03-01T10:53:20;6.18;;;5.93;;
67378;SDS011;54262;44.642;-0.974;2023-03-01T10:55:55;6.65;;;6.18;;
67378;SDS011;54262;44.642;-0.974;2023-03-01T10:58:22;6.55;;;6.25;;
67378;SDS011;54262;44.642;-0.974;2023-03-01T11:03:18;6.10;;;5.80;;
67378;SDS011;54262;44.642;-0.974;2023-03-01T11:08:28;7.10;;;6.63;;
67378;SDS011;54262;44.642;-0.974;2023-03-01T11:11:03;5.82;;;5.63;;
67378;SDS011;54262;44.642;-0.974;2023-03-01T11:13:29;6.07;;;5.78;;
67378;SDS011;54262;44.642;-0.974;2023-03-01T11:15:59;6.38;;;6.07;;
67378;SDS011;54262;44.642;-0.974;2023-03-01T11:18:26;6.35;;;6.05;;
67378;SDS011;54262;44.642;-0.974;2023-03-01T11:20:55;6.80;;;6.30;;
67378;SDS011;54262;44.642;-0.974;2023-03-01T11:23:21;5.88;;;5.57;;
67378;SDS011;54262;44.642;-0.974;2023-03-01T11:25:58;6.63;;;6.18;;
67378;SDS011;54262;44.642;-0.974;2023-03-01T11:28:26;6.57;;;6.18;;
67378;SDS011;54262;44.642;-0.974;2023-03-01T11:30:54;5.97;;;5.68;;
67378;SDS011;54262;44.642;-0.974;2023-03-01T11:33:28;6.50;;;6.20;;
67378;SDS011;54262;44.642;-0.974;2023-03-01T11:36:01;6.63;;;6.10;;
67378;SDS011;54262;44.642;-0.974;2023-03-01T11:38:28;7.40;;;7.05;;
67378;SDS011;54262;44.642;-0.974;2023-03-01T11:41:06;6.35;;;6.15;;
67378;SDS011;54262;44.642;-0.974;2023-03-01T11:56:40;7.43;;;7.13;;
67378;SDS011;54262;44.642;-0.974;2023-03-01T12:07:10;6.03;;;5.72;;
67378;SDS011;54262;44.642;-0.974;2023-03-01T12:09:56;4.07;;;3.28;;
67378;SDS011;54262;44.642;-0.974;2023-03-01T12:12:31;4.38;;;3.38;;
67378;SDS011;54262;44.642;-0.974;2023-03-01T12:17:58;5.85;;;5.55;;
67378;SDS011;54262;44.642;-0.974;2023-03-01T12:28:01;5.78;;;5.50;;
67378;SDS011;54262;44.642;-0.974;2023-03-01T12:30:42;5.68;;;5.47;;
67378;SDS011;54262;44.642;-0.974;2023-03-01T12:35:54;4.82;;;4.63;;
67378;SDS011;54262;44.642;-0.974;2023-03-01T12:44:11;6.30;;;5.90;;
67378;SDS011;54262;44.642;-0.974;2023-03-01T12:51:20;2.97;;;2.72;;
67378;SDS011;54262;44.642;-0.974;2023-03-01T12:53:49;4.85;;;4.65;;
67378;SDS011;54262;44.642;-0.974;2023-03-01T12:56:22;5.03;;;4.63;;
67378;SDS011;54262;44.642;-0.974;2023-03-01T12:58:55;3.63;;;3.42;;
67378;SDS011;54262;44.642;-0.974;2023-03-01T13:11:41;3.22;;;3.03;;
67378;SDS011;54262;44.642;-0.974;2023-03-01T13:16:46;6.75;;;5.97;;
67378;SDS011;54262;44.642;-0.974;2023-03-01T13:19:21;5.97;;;5.68;;
67378;SDS011;54262;44.642;-0.974;2023-03-01T13:21:48;5.70;;;5.30;;
67378;SDS011;54262;44.642;-0.974;2023-03-01T13:27:24;4.95;;;4.65;;
67378;SDS011;54262;44.642;-0.974;2023-03-01T13:29:46;3.72;;;3.53;;
67378;SDS011;54262;44.642;-0.974;2023-03-01T13:32:26;4.03;;;3.72;;
67378;SDS011;54262;44.642;-0.974;2023-03-01T13:35:00;4.88;;;4.47;;
67378;SDS011;54262;44.642;-0.974;2023-03-01T13:37:32;4.07;;;3.88;;
67378;SDS011;54262;44.642;-0.974;2023-03-01T13:39:59;6.00;;;5.55;;
67378;SDS011;54262;44.642;-0.974;2023-03-01T13:42:37;3.35;;;3.15;;
67378;SDS011;54262;44.642;-0.974;2023-03-01T13:45:05;2.90;;;2.70;;
67378;SDS011;54262;44.642;-0.974;2023-03-01T13:47:39;2.97;;;2.88;;
67378;SDS011;54262;44.642;-0.974;2023-03-01T13:50:15;4.88;;;4.65;;
67378;SDS011;54262;44.642;-0.974;2023-03-01T13:52:43;2.63;;;2.53;;
67378;SDS011;54262;44.642;-0.974;2023-03-01T13:57:45;3.42;;;3.22;;
67378;SDS011;54262;44.642;-0.974;2023-03-01T14:00:26;7.25;;;6.68;;
67378;SDS011;54262;44.642;-0.974;2023-03-01T14:03:09;7.97;;;5.53;;
67378;SDS011;54262;44.642;-0.974;2023-03-01T14:05:35;3.85;;;3.55;;
67378;SDS011;54262;44.642;-0.974;2023-03-01T14:08:02;2.45;;;2.35;;
67378;SDS011;54262;44.642;-0.974;2023-03-01T14:10:31;3.03;;;2.83;;
67378;SDS011;54262;44.642;-0.974;2023-03-01T14:13:05;5.70;;;5.18;;
67378;SDS011;54262;44.642;-0.974;2023-03-01T14:15:39;2.17;;;2.08;;
67378;SDS011;54262;44.642;-0.974;2023-03-01T14:18:14;8.40;;;7.55;;
67378;SDS011;54262;44.642;-0.974;2023-03-01T14:20:44;5.95;;;5.65;;
67378;SDS011;54262;44.642;-0.974;2023-03-01T14:23:20;7.60;;;5.72;;
67378;SDS011;54262;44.642;-0.974;2023-03-01T14:25:50;6.97;;;6.47;;
67378;SDS011;54262;44.642;-0.974;2023-03-01T14:28:18;3.28;;;3.08;;
67378;SDS011;54262;44.642;-0.974;2023-03-01T14:30:49;7.03;;;6.47;;
67378;SDS011;54262;44.642;-0.974;2023-03-01T14:35:58;5.78;;;5.47;;
67378;SDS011;54262;44.642;-0.974;2023-03-01T14:38:40;4.05;;;3.75;;
67378;SDS011;54262;44.642;-0.974;2023-03-01T14:41:14;5.93;;;5.63;;
67378;SDS011;54262;44.642;-0.974;2023-03-01T14:43:41;3.15;;;2.83;;
67378;SDS011;54262;44.642;-0.974;2023-03-01T14:46:19;5.32;;;5.03;;
67378;SDS011;54262;44.642;-0.974;2023-03-01T14:48:48;3.35;;;3.15;;
67378;SDS011;54262;44.642;-0.974;2023-03-01T14:51:14;3.83;;;3.30;;
67378;SDS011;54262;44.642;-0.974;2023-03-01T14:53:40;3.47;;;3.17;;
67378;SDS011;54262;44.642;-0.974;2023-03-01T14:56:12;8.25;;;7.50;;
67378;SDS011;54262;44.642;-0.974;2023-03-01T14:58:38;3.13;;;2.92;;
67378;SDS011;54262;44.642;-0.974;2023-03-01T15:01:05;4.18;;;3.72;;
67378;SDS011;54262;44.642;-0.974;2023-03-01T15:03:40;4.28;;;4.03;;
67378;SDS011;54262;44.642;-0.974;2023-03-01T15:06:10;4.05;;;2.65;;
67378;SDS011;54262;44.642;-0.974;2023-03-01T15:08:37;5.60;;;5.30;;
67378;SDS011;54262;44.642;-0.974;2023-03-01T15:18:53;4.43;;;4.22;;
67378;SDS011;54262;44.642;-0.974;2023-03-01T15:21:24;6.78;;;6.28;;
67378;SDS011;54262;44.642;-0.974;2023-03-01T15:23:53;9.43;;;8.65;;
67378;SDS011;54262;44.642;-0.974;2023-03-01T15:26:30;3.95;;;3.75;;
67378;SDS011;54262;44.642;-0.974;2023-03-01T15:28:56;4.25;;;3.95;;
67378;SDS011;54262;44.642;-0.974;2023-03-01T15:31:28;5.47;;;5.18;;
67378;SDS011;54262;44.642;-0.974;2023-03-01T15:34:10;4.55;;;4.35;;
67378;SDS011;54262;44.642;-0.974;2023-03-01T15:36:44;3.80;;;3.60;;
67378;SDS011;54262;44.642;-0.974;2023-03-01T15:41:55;7.70;;;7.30;;
67378;SDS011;54262;44.642;-0.974;2023-03-01T15:46:50;12.50;;;11.55;;
67378;SDS011;54262;44.642;-0.974;2023-03-01T15:51:45;5.63;;;5.38;;
67378;SDS011;54262;44.642;-0.974;2023-03-01T15:54:14;6.25;;;5.75;;
67378;SDS011;54262;44.642;-0.974;2023-03-01T15:56:43;10.82;;;10.18;;
67378;SDS011;54262;44.642;-0.974;2023-03-01T15:59:09;12.70;;;11.52;;
67378;SDS011;54262;44.642;-0.974;2023-03-01T16:01:38;13.32;;;12.57;;
67378;SDS011;54262;44.642;-0.974;2023-03-01T16:04:04;14.15;;;13.15;;
67378;SDS011;54262;44.642;-0.974;2023-03-01T16:06:30;14.50;;;13.38;;
67378;SDS011;54262;44.642;-0.974;2023-03-01T16:08:56;14.73;;;13.75;;
67378;SDS011;54262;44.642;-0.974;2023-03-01T16:11:22;13.55;;;12.75;;
67378;SDS011;54262;44.642;-0.974;2023-03-01T16:13:48;13.93;;;12.93;;
67378;SDS011;54262;44.642;-0.974;2023-03-01T16:16:15;14.40;;;13.60;;
67378;SDS011;54262;44.642;-0.974;2023-03-01T16:18:43;13.45;;;12.60;;
67378;SDS011;54262;44.642;-0.974;2023-03-01T16:21:14;13.20;;;12.35;;
67378;SDS011;54262;44.642;-0.974;2023-03-01T16:23:41;13.93;;;13.18;;
67378;SDS011;54262;44.642;-0.974;2023-03-01T16:26:07;10.18;;;9.68;;
67378;SDS011;54262;44.642;-0.974;2023-03-01T16:28:33;13.80;;;13.10;;
67378;SDS011;54262;44.642;-0.974;2023-03-01T16:30:59;14.75;;;13.85;;
67378;SDS011;54262;44.642;-0.974;2023-03-01T16:33:26;15.23;;;14.10;;
67378;SDS011;54262;44.642;-0.974;2023-03-01T16:35:52;14.93;;;13.90;;
67378;SDS011;54262;44.642;-0.974;2023-03-01T16:38:18;13.00;;;12.05;;
67378;SDS011;54262;44.642;-0.974;2023-03-01T16:40:46;13.85;;;12.95;;
67378;SDS011;54262;44.642;-0.974;2023-03-01T16:43:13;15.27;;;14.18;;
67378;SDS011;54262;44.642;-0.974;2023-03-01T16:45:39;13.32;;;12.18;;